sensor_id;sensor_type;location;lat;lon;timestamp;P1;durP1;ratioP1;P2;durP2;ratioP2
40048;SDS011;54524;55.740;37.544;2022-11-15T00:01:06;3.3;;;0.8;;
40048;SDS011;54524;55.740;37.544;2022-11-15T00:02:06;3.3;;;0.8;;
40048;SDS011;54524;55.740;37.544;2022-11-15T00:03:07;3.4;;;0.8;;
40048;SDS011;54524;55.740;37.544;2022-11-15T00:04:07;2.8;;;0.7;;
40048;SDS011;54524;55.740;37.544;2022-11-15T00:05:10;2.6;;;0.7;;
40048;SDS011;54524;55.740;37.544;2022-11-15T00:06:11;2.6;;;0.7;;
40048;SDS011;54524;55.740;37.544;2022-11-15T00:07:12;5.1;;;0.8;;
40048;SDS011;54524;55.740;37.544;2022-11-15T00:08:12;5.3;;;0.9;;
40048;SDS011;54524;55.740;37.544;2022-11-15T00:09:13;5.2;;;0.9;;
40048;SDS011;54524;55.740;37.544;2022-11-15T00:11:03;3.2;;;0.6;;
40048;SDS011;54524;55.740;37.544;2022-11-15T00:12:03;3.2;;;0.6;;
40048;SDS011;54524;55.740;37.544;2022-11-15T00:13:05;3.2;;;0.6;;
40048;SDS011;54524;55.740;37.544;2022-11-15T00:14:06;2.3;;;0.7;;
40048;SDS011;54524;55.740;37.544;2022-11-15T00:15:07;2.6;;;0.8;;
40048;SDS011;54524;55.740;37.544;2022-11-15T00:16:08;2.6;;;0.8;;
40048;SDS011;54524;55.740;37.544;2022-11-15T00:17:09;2.7;;;0.7;;
40048;SDS011;54524;55.740;37.544;2022-11-15T00:18:11;2.8;;;0.7;;
40048;SDS011;54524;55.740;37.544;2022-11-15T00:19:12;2.8;;;0.7;;
40048;SDS011;54524;55.740;37.544;2022-11-15T00:21:03;2.9;;;0.8;;
40048;SDS011;54524;55.740;37.544;2022-11-15T00:22:04;3.1;;;0.8;;
40048;SDS011;54524;55.740;37.544;2022-11-15T00:23:05;2.3;;;0.7;;
40048;SDS011;54524;55.740;37.544;2022-11-15T00:24:05;2.4;;;0.7;;
40048;SDS011;54524;55.740;37.544;2022-11-15T00:25:06;2.4;;;0.7;;
40048;SDS011;54524;55.740;37.544;2022-11-15T00:26:08;3.3;;;0.8;;
40048;SDS011;54524;55.740;37.544;2022-11-15T00:27:11;3.3;;;0.8;;
40048;SDS011;54524;55.740;37.544;2022-11-15T00:28:12;3.4;;;0.8;;
40048;SDS011;54524;55.740;37.544;2022-11-15T00:29:12;4.1;;;0.9;;
40048;SDS011;54524;55.740;37.544;2022-11-15T00:31:03;4.1;;;0.9;;
40048;SDS011;54524;55.740;37.544;2022-11-15T00:32:04;4.1;;;0.9;;
40048;SDS011;54524;55.740;37.544;2022-11-15T00:33:05;2.1;;;0.8;;
40048;SDS011;54524;55.740;37.544;2022-11-15T00:34:06;2.2;;;0.7;;
40048;SDS011;54524;55.740;37.544;2022-11-15T00:35:07;2.2;;;0.7;;
40048;SDS011;54524;55.740;37.544;2022-11-15T00:36:08;2.5;;;0.8;;
40048;SDS011;54524;55.740;37.544;2022-11-15T00:37:11;2.4;;;0.8;;
40048;SDS011;54524;55.740;37.544;2022-11-15T00:38:12;2.4;;;0.8;;
40048;SDS011;54524;55.740;37.544;2022-11-15T00:39:12;3.5;;;0.8;;
40048;SDS011;54524;55.740;37.544;2022-11-15T00:41:03;3.5;;;0.8;;
40048;SDS011;54524;55.740;37.544;2022-11-15T00:42:03;3;;;0.9;;
40048;SDS011;54524;55.740;37.544;2022-11-15T00:43:04;3;;;0.9;;
40048;SDS011;54524;55.740;37.544;2022-11-15T00:44:04;3.2;;;0.9;;
40048;SDS011;54524;55.740;37.544;2022-11-15T00:45:05;2.7;;;0.8;;
40048;SDS011;54524;55.740;37.544;2022-11-15T00:46:06;3;;;0.8;;
40048;SDS011;54524;55.740;37.544;2022-11-15T00:47:09;3.2;;;0.9;;
40048;SDS011;54524;55.740;37.544;2022-11-15T00:48:09;2.7;;;0.8;;
40048;SDS011;54524;55.740;37.544;2022-11-15T00:49:10;2.7;;;0.8;;
40048;SDS011;54524;55.740;37.544;2022-11-15T00:51:03;2.5;;;0.7;;
40048;SDS011;54524;55.740;37.544;2022-11-15T00:52:03;3.4;;;0.7;;
40048;SDS011;54524;55.740;37.544;2022-11-15T00:53:04;3.6;;;0.7;;
40048;SDS011;54524;55.740;37.544;2022-11-15T00:54:04;3.6;;;0.7;;
40048;SDS011;54524;55.740;37.544;2022-11-15T00:55:05;3;;;0.9;;
40048;SDS011;54524;55.740;37.544;2022-11-15T00:56:05;3;;;0.9;;
40048;SDS011;54524;55.740;37.544;2022-11-15T00:57:07;3.1;;;0.9;;
40048;SDS011;54524;55.740;37.544;2022-11-15T00:58:07;3.5;;;1;;
40048;SDS011;54524;55.740;37.544;2022-11-15T00:59:08;3.4;;;0.9;;
40048;SDS011;54524;55.740;37.544;2022-11-15T01:01:07;2.7;;;0.8;;
40048;SDS011;54524;55.740;37.544;2022-11-15T01:02:07;2.7;;;0.8;;
40048;SDS011;54524;55.740;37.544;2022-11-15T01:03:08;2.6;;;0.8;;
40048;SDS011;54524;55.740;37.544;2022-11-15T01:04:08;4;;;1.1;;
40048;SDS011;54524;55.740;37.544;2022-11-15T01:05:09;4;;;1.1;;
40048;SDS011;54524;55.740;37.544;2022-11-15T01:06:10;4;;;1.1;;
40048;SDS011;54524;55.740;37.544;2022-11-15T01:07:12;3.7;;;1;;
40048;SDS011;54524;55.740;37.544;2022-11-15T01:08:13;3.8;;;1;;
40048;SDS011;54524;55.740;37.544;2022-11-15T01:09:13;3.8;;;1;;
40048;SDS011;54524;55.740;37.544;2022-11-15T01:11:02;2.4;;;0.9;;
40048;SDS011;54524;55.740;37.544;2022-11-15T01:12:03;2.3;;;0.8;;
40048;SDS011;54524;55.740;37.544;2022-11-15T01:13:04;2.6;;;0.9;;
40048;SDS011;54524;55.740;37.544;2022-11-15T01:14:05;2.6;;;0.9;;
40048;SDS011;54524;55.740;37.544;2022-11-15T01:15:05;2.7;;;0.9;;
40048;SDS011;54524;55.740;37.544;2022-11-15T01:16:08;2.3;;;0.9;;
40048;SDS011;54524;55.740;37.544;2022-11-15T01:17:09;2.6;;;0.9;;
40048;SDS011;54524;55.740;37.544;2022-11-15T01:18:09;2.6;;;0.9;;
40048;SDS011;54524;55.740;37.544;2022-11-15T01:19:10;3.1;;;1;;
40048;SDS011;54524;55.740;37.544;2022-11-15T01:21:04;3.1;;;0.9;;
40048;SDS011;54524;55.740;37.544;2022-11-15T01:22:05;4.4;;;0.7;;
40048;SDS011;54524;55.740;37.544;2022-11-15T01:23:05;4;;;0.7;;
40048;SDS011;54524;55.740;37.544;2022-11-15T01:24:07;4;;;0.7;;
40048;SDS011;54524;55.740;37.544;2022-11-15T01:25:07;3.5;;;1;;
40048;SDS011;54524;55.740;37.544;2022-11-15T01:26:10;3.6;;;1;;
40048;SDS011;54524;55.740;37.544;2022-11-15T01:27:11;3.6;;;1;;
40048;SDS011;54524;55.740;37.544;2022-11-15T01:28:12;3.4;;;1;;
40048;SDS011;54524;55.740;37.544;2022-11-15T01:29:12;3.3;;;1;;
40048;SDS011;54524;55.740;37.544;2022-11-15T01:31:04;3.2;;;0.9;;
40048;SDS011;54524;55.740;37.544;2022-11-15T01:32:05;4;;;1.2;;
40048;SDS011;54524;55.740;37.544;2022-11-15T01:33:06;3.9;;;1.2;;
40048;SDS011;54524;55.740;37.544;2022-11-15T01:34:06;4.4;;;1.2;;
40048;SDS011;54524;55.740;37.544;2022-11-15T01:35:07;2.8;;;0.9;;
40048;SDS011;54524;55.740;37.544;2022-11-15T01:36:09;2.9;;;0.9;;
40048;SDS011;54524;55.740;37.544;2022-11-15T01:37:11;2.9;;;0.9;;
40048;SDS011;54524;55.740;37.544;2022-11-15T01:38:11;2.4;;;0.9;;
40048;SDS011;54524;55.740;37.544;2022-11-15T01:39:12;2.4;;;0.9;;
40048;SDS011;54524;55.740;37.544;2022-11-15T01:41:03;3;;;1;;
40048;SDS011;54524;55.740;37.544;2022-11-15T01:42:03;3;;;1;;
40048;SDS011;54524;55.740;37.544;2022-11-15T01:43:20;3;;;1;;
40048;SDS011;54524;55.740;37.544;2022-11-15T01:44:51;5.2;;;1;;
40048;SDS011;54524;55.740;37.544;2022-11-15T01:45:54;5;;;1;;
40048;SDS011;54524;55.740;37.544;2022-11-15T01:46:56;5.1;;;1;;
40048;SDS011;54524;55.740;37.544;2022-11-15T01:47:58;3.3;;;1.1;;
40048;SDS011;54524;55.740;37.544;2022-11-15T01:49:00;3.3;;;1.1;;
40048;SDS011;54524;55.740;37.544;2022-11-15T01:50:02;3.4;;;1.1;;
40048;SDS011;54524;55.740;37.544;2022-11-15T01:51:04;3.4;;;1.1;;
40048;SDS011;54524;55.740;37.544;2022-11-15T01:52:07;5.1;;;1;;
40048;SDS011;54524;55.740;37.544;2022-11-15T01:53:08;5;;;1;;
40048;SDS011;54524;55.740;37.544;2022-11-15T01:54:12;5;;;1;;
40048;SDS011;54524;55.740;37.544;2022-11-15T01:55:14;3.8;;;1;;
40048;SDS011;54524;55.740;37.544;2022-11-15T01:56:18;3.8;;;1;;
40048;SDS011;54524;55.740;37.544;2022-11-15T01:57:21;3.4;;;1;;
40048;SDS011;54524;55.740;37.544;2022-11-15T01:58:22;3.4;;;1;;
40048;SDS011;54524;55.740;37.544;2022-11-15T01:59:22;3.3;;;1;;
40048;SDS011;54524;55.740;37.544;2022-11-15T02:01:03;4.1;;;1;;
40048;SDS011;54524;55.740;37.544;2022-11-15T02:02:03;3.4;;;1;;
40048;SDS011;54524;55.740;37.544;2022-11-15T02:03:04;3.7;;;1.1;;
40048;SDS011;54524;55.740;37.544;2022-11-15T02:04:06;4.2;;;1;;
40048;SDS011;54524;55.740;37.544;2022-11-15T02:05:09;4.3;;;1;;
40048;SDS011;54524;55.740;37.544;2022-11-15T02:06:10;4.4;;;1.1;;
40048;SDS011;54524;55.740;37.544;2022-11-15T02:07:12;4;;;0.9;;
40048;SDS011;54524;55.740;37.544;2022-11-15T02:08:13;4;;;0.9;;
40048;SDS011;54524;55.740;37.544;2022-11-15T02:09:19;4.1;;;0.9;;
40048;SDS011;54524;55.740;37.544;2022-11-15T02:11:04;3.6;;;1;;
40048;SDS011;54524;55.740;37.544;2022-11-15T02:12:04;3.6;;;1;;
40048;SDS011;54524;55.740;37.544;2022-11-15T02:13:06;5.5;;;1;;
40048;SDS011;54524;55.740;37.544;2022-11-15T02:14:06;5.5;;;1.1;;
40048;SDS011;54524;55.740;37.544;2022-11-15T02:15:07;5.5;;;1.1;;
40048;SDS011;54524;55.740;37.544;2022-11-15T02:16:11;6.8;;;1;;
40048;SDS011;54524;55.740;37.544;2022-11-15T02:17:21;6.3;;;1;;
40048;SDS011;54524;55.740;37.544;2022-11-15T02:18:26;6.2;;;1;;
40048;SDS011;54524;55.740;37.544;2022-11-15T02:19:35;4.9;;;0.9;;
40048;SDS011;54524;55.740;37.544;2022-11-15T02:21:07;4.9;;;0.9;;
40048;SDS011;54524;55.740;37.544;2022-11-15T02:22:10;4.4;;;0.9;;
40048;SDS011;54524;55.740;37.544;2022-11-15T02:23:23;4.3;;;0.9;;
40048;SDS011;54524;55.740;37.544;2022-11-15T02:24:31;4.3;;;0.9;;
40048;SDS011;54524;55.740;37.544;2022-11-15T02:25:37;3.8;;;1.1;;
40048;SDS011;54524;55.740;37.544;2022-11-15T02:26:46;3.9;;;1.1;;
40048;SDS011;54524;55.740;37.544;2022-11-15T02:27:59;4.2;;;1.1;;
40048;SDS011;54524;55.740;37.544;2022-11-15T02:29:05;5.3;;;1;;
40048;SDS011;54524;55.740;37.544;2022-11-15T02:31:03;5.1;;;1;;
40048;SDS011;54524;55.740;37.544;2022-11-15T02:32:06;6.3;;;1.1;;
40048;SDS011;54524;55.740;37.544;2022-11-15T02:33:12;6.4;;;1.1;;
40048;SDS011;54524;55.740;37.544;2022-11-15T02:34:16;8.7;;;1.2;;
40048;SDS011;54524;55.740;37.544;2022-11-15T02:35:19;8.8;;;1.2;;
40048;SDS011;54524;55.740;37.544;2022-11-15T02:36:25;9;;;1.2;;
40048;SDS011;54524;55.740;37.544;2022-11-15T02:37:31;4.1;;;0.9;;
40048;SDS011;54524;55.740;37.544;2022-11-15T02:38:34;3.4;;;0.9;;
40048;SDS011;54524;55.740;37.544;2022-11-15T02:39:39;3.5;;;0.9;;
40048;SDS011;54524;55.740;37.544;2022-11-15T02:41:03;4;;;1;;
40048;SDS011;54524;55.740;37.544;2022-11-15T02:42:07;4.9;;;1;;
40048;SDS011;54524;55.740;37.544;2022-11-15T02:44:56;3.7;;;0.9;;
40048;SDS011;54524;55.740;37.544;2022-11-15T02:46:00;3.8;;;0.9;;
40048;SDS011;54524;55.740;37.544;2022-11-15T02:47:03;4.1;;;0.9;;
40048;SDS011;54524;55.740;37.544;2022-11-15T02:48:19;4.1;;;0.9;;
40048;SDS011;54524;55.740;37.544;2022-11-15T02:49:22;4.1;;;0.9;;
40048;SDS011;54524;55.740;37.544;2022-11-15T02:51:03;5.5;;;0.9;;
40048;SDS011;54524;55.740;37.544;2022-11-15T02:52:04;5.6;;;0.9;;
40048;SDS011;54524;55.740;37.544;2022-11-15T02:53:05;4.1;;;1;;
40048;SDS011;54524;55.740;37.544;2022-11-15T02:54:08;4.1;;;1;;
40048;SDS011;54524;55.740;37.544;2022-11-15T02:55:24;4.5;;;0.9;;
40048;SDS011;54524;55.740;37.544;2022-11-15T02:56:26;2.8;;;0.8;;
40048;SDS011;54524;55.740;37.544;2022-11-15T02:57:31;2.7;;;0.7;;
40048;SDS011;54524;55.740;37.544;2022-11-15T02:58:42;2.7;;;0.7;;
40048;SDS011;54524;55.740;37.544;2022-11-15T02:59:53;4.2;;;0.9;;
40048;SDS011;54524;55.740;37.544;2022-11-15T03:01:04;4.7;;;0.9;;
40048;SDS011;54524;55.740;37.544;2022-11-15T03:02:10;4.7;;;0.9;;
40048;SDS011;54524;55.740;37.544;2022-11-15T03:03:19;4.2;;;1;;
40048;SDS011;54524;55.740;37.544;2022-11-15T03:04:27;4.1;;;1;;
40048;SDS011;54524;55.740;37.544;2022-11-15T03:05:31;4;;;0.9;;
40048;SDS011;54524;55.740;37.544;2022-11-15T03:06:35;4.1;;;0.9;;
40048;SDS011;54524;55.740;37.544;2022-11-15T03:07:39;4.2;;;0.9;;
40048;SDS011;54524;55.740;37.544;2022-11-15T03:08:44;5.5;;;1;;
40048;SDS011;54524;55.740;37.544;2022-11-15T03:09:49;5.6;;;1.1;;
40048;SDS011;54524;55.740;37.544;2022-11-15T03:11:03;5;;;1;;
40048;SDS011;54524;55.740;37.544;2022-11-15T03:12:08;6.6;;;1.1;;
40048;SDS011;54524;55.740;37.544;2022-11-15T03:13:13;6.6;;;1.1;;
40048;SDS011;54524;55.740;37.544;2022-11-15T03:14:19;6.9;;;1.1;;
40048;SDS011;54524;55.740;37.544;2022-11-15T03:15:21;6.9;;;1;;
40048;SDS011;54524;55.740;37.544;2022-11-15T03:16:24;6.7;;;1;;
40048;SDS011;54524;55.740;37.544;2022-11-15T03:17:28;6.8;;;1;;
40048;SDS011;54524;55.740;37.544;2022-11-15T03:18:30;6.3;;;1;;
40048;SDS011;54524;55.740;37.544;2022-11-15T03:19:33;5.7;;;1;;
40048;SDS011;54524;55.740;37.544;2022-11-15T03:21:04;7.4;;;1.2;;
40048;SDS011;54524;55.740;37.544;2022-11-15T03:22:06;7.5;;;1.2;;
40048;SDS011;54524;55.740;37.544;2022-11-15T03:23:08;4.7;;;0.9;;
40048;SDS011;54524;55.740;37.544;2022-11-15T03:24:09;4.7;;;0.9;;
40048;SDS011;54524;55.740;37.544;2022-11-15T03:25:10;4.5;;;0.8;;
40048;SDS011;54524;55.740;37.544;2022-11-15T03:26:13;4.5;;;0.8;;
40048;SDS011;54524;55.740;37.544;2022-11-15T03:27:15;0;;;0;;
40048;SDS011;54524;55.740;37.544;2022-11-15T03:28:20;8.8;;;1.1;;
40048;SDS011;54524;55.740;37.544;2022-11-15T03:29:22;8.8;;;1.1;;
40048;SDS011;54524;55.740;37.544;2022-11-15T03:31:03;5;;;1.1;;
40048;SDS011;54524;55.740;37.544;2022-11-15T03:32:47;5.4;;;1;;
40048;SDS011;54524;55.740;37.544;2022-11-15T03:33:48;4.6;;;1;;
40048;SDS011;54524;55.740;37.544;2022-11-15T03:34:49;4.7;;;1;;
40048;SDS011;54524;55.740;37.544;2022-11-15T03:35:51;4.1;;;1.1;;
40048;SDS011;54524;55.740;37.544;2022-11-15T03:36:52;4.1;;;1.1;;
40048;SDS011;54524;55.740;37.544;2022-11-15T03:37:55;4.1;;;1.1;;
40048;SDS011;54524;55.740;37.544;2022-11-15T03:38:58;6;;;1.1;;
40048;SDS011;54524;55.740;37.544;2022-11-15T03:40:00;6.1;;;1.2;;
40048;SDS011;54524;55.740;37.544;2022-11-15T03:41:04;6;;;1.1;;
40048;SDS011;54524;55.740;37.544;2022-11-15T03:42:08;5.3;;;0.9;;
40048;SDS011;54524;55.740;37.544;2022-11-15T03:43:15;5.2;;;0.8;;
40048;SDS011;54524;55.740;37.544;2022-11-15T03:44:19;5.4;;;0.8;;
40048;SDS011;54524;55.740;37.544;2022-11-15T03:45:22;3;;;1;;
40048;SDS011;54524;55.740;37.544;2022-11-15T03:46:25;2.9;;;0.9;;
40048;SDS011;54524;55.740;37.544;2022-11-15T03:47:29;3.1;;;1;;
40048;SDS011;54524;55.740;37.544;2022-11-15T03:48:33;6.6;;;1.1;;
40048;SDS011;54524;55.740;37.544;2022-11-15T03:49:35;6.6;;;1.1;;
40048;SDS011;54524;55.740;37.544;2022-11-15T03:51:02;0;;;0;;
40048;SDS011;54524;55.740;37.544;2022-11-15T03:52:04;4;;;0.9;;
40048;SDS011;54524;55.740;37.544;2022-11-15T03:53:05;4;;;0.9;;
40048;SDS011;54524;55.740;37.544;2022-11-15T03:54:05;2.4;;;0.7;;
40048;SDS011;54524;55.740;37.544;2022-11-15T03:55:07;2.3;;;0.7;;
40048;SDS011;54524;55.740;37.544;2022-11-15T03:56:08;2.3;;;0.7;;
40048;SDS011;54524;55.740;37.544;2022-11-15T03:57:09;6.1;;;1;;
40048;SDS011;54524;55.740;37.544;2022-11-15T03:58:10;6.2;;;1;;
40048;SDS011;54524;55.740;37.544;2022-11-15T03:59:10;6.2;;;1;;
40048;SDS011;54524;55.740;37.544;2022-11-15T04:01:03;6.30;;;1.20;;
40048;SDS011;54524;55.740;37.544;2022-11-15T04:02:03;7.5;;;0.8;;
40048;SDS011;54524;55.740;37.544;2022-11-15T04:03:04;4.5;;;1.1;;
40048;SDS011;54524;55.740;37.544;2022-11-15T04:04:04;3.9;;;1.1;;
40048;SDS011;54524;55.740;37.544;2022-11-15T04:05:05;3.5;;;1;;
40048;SDS011;54524;55.740;37.544;2022-11-15T04:06:06;5;;;1.1;;
40048;SDS011;54524;55.740;37.544;2022-11-15T04:07:07;5;;;1.1;;
40048;SDS011;54524;55.740;37.544;2022-11-15T04:08:07;4.9;;;1.1;;
40048;SDS011;54524;55.740;37.544;2022-11-15T04:09:08;7.2;;;1.2;;
40048;SDS011;54524;55.740;37.544;2022-11-15T04:11:03;6.6;;;1.2;;
40048;SDS011;54524;55.740;37.544;2022-11-15T04:12:03;6.2;;;1.2;;
40048;SDS011;54524;55.740;37.544;2022-11-15T04:13:04;5.4;;;0.9;;
40048;SDS011;54524;55.740;37.544;2022-11-15T04:14:04;5.7;;;0.9;;
40048;SDS011;54524;55.740;37.544;2022-11-15T04:15:06;5.6;;;0.9;;
40048;SDS011;54524;55.740;37.544;2022-11-15T04:16:07;4.6;;;1;;
40048;SDS011;54524;55.740;37.544;2022-11-15T04:17:08;4.7;;;1;;
40048;SDS011;54524;55.740;37.544;2022-11-15T04:18:09;4.5;;;1;;
40048;SDS011;54524;55.740;37.544;2022-11-15T04:19:09;4.9;;;0.7;;
40048;SDS011;54524;55.740;37.544;2022-11-15T04:21:02;4;;;0.7;;
40048;SDS011;54524;55.740;37.544;2022-11-15T04:24:10;3.5;;;1.1;;
40048;SDS011;54524;55.740;37.544;2022-11-15T04:25:14;4.2;;;1;;
40048;SDS011;54524;55.740;37.544;2022-11-15T04:26:15;4.2;;;1;;
40048;SDS011;54524;55.740;37.544;2022-11-15T04:27:16;4.2;;;1;;
40048;SDS011;54524;55.740;37.544;2022-11-15T04:28:17;6.7;;;1;;
40048;SDS011;54524;55.740;37.544;2022-11-15T04:29:18;6.6;;;1;;
40048;SDS011;54524;55.740;37.544;2022-11-15T04:31:03;6.2;;;0.9;;
40048;SDS011;54524;55.740;37.544;2022-11-15T04:32:04;5.6;;;0.9;;
40048;SDS011;54524;55.740;37.544;2022-11-15T04:33:05;5.5;;;0.9;;
40048;SDS011;54524;55.740;37.544;2022-11-15T04:34:05;4.2;;;1;;
40048;SDS011;54524;55.740;37.544;2022-11-15T04:35:06;4;;;1;;
40048;SDS011;54524;55.740;37.544;2022-11-15T04:36:07;3.2;;;1;;
40048;SDS011;54524;55.740;37.544;2022-11-15T04:39:15;5.2;;;1;;
40048;SDS011;54524;55.740;37.544;2022-11-15T04:41:03;6;;;0.9;;
40048;SDS011;54524;55.740;37.544;2022-11-15T04:42:03;6.3;;;1;;
40048;SDS011;54524;55.740;37.544;2022-11-15T04:43:04;0;;;0;;
40048;SDS011;54524;55.740;37.544;2022-11-15T04:44:04;8.1;;;1;;
40048;SDS011;54524;55.740;37.544;2022-11-15T04:45:05;8.1;;;1;;
40048;SDS011;54524;55.740;37.544;2022-11-15T04:46:06;7.5;;;1.1;;
40048;SDS011;54524;55.740;37.544;2022-11-15T04:47:07;7.6;;;1.2;;
40048;SDS011;54524;55.740;37.544;2022-11-15T04:48:07;7.6;;;1.2;;
40048;SDS011;54524;55.740;37.544;2022-11-15T04:49:08;5.4;;;1.1;;
40048;SDS011;54524;55.740;37.544;2022-11-15T04:51:03;6.30;;;1.20;;
40048;SDS011;54524;55.740;37.544;2022-11-15T04:52:03;6.4;;;1.1;;
40048;SDS011;54524;55.740;37.544;2022-11-15T04:53:04;6.4;;;1.1;;
40048;SDS011;54524;55.740;37.544;2022-11-15T04:54:04;6.1;;;1;;
40048;SDS011;54524;55.740;37.544;2022-11-15T04:55:05;6.2;;;1.1;;
40048;SDS011;54524;55.740;37.544;2022-11-15T04:56:06;6.2;;;1.1;;
40048;SDS011;54524;55.740;37.544;2022-11-15T04:57:07;6.2;;;1.1;;
40048;SDS011;54524;55.740;37.544;2022-11-15T04:58:08;6.2;;;1.1;;
40048;SDS011;54524;55.740;37.544;2022-11-15T04:59:09;2.7;;;0.9;;
40048;SDS011;54524;55.740;37.544;2022-11-15T05:01:06;2.6;;;0.8;;
40048;SDS011;54524;55.740;37.544;2022-11-15T05:02:06;5;;;1;;
40048;SDS011;54524;55.740;37.544;2022-11-15T05:03:08;5.1;;;1;;
40048;SDS011;54524;55.740;37.544;2022-11-15T05:06:16;6.5;;;1.2;;
40048;SDS011;54524;55.740;37.544;2022-11-15T05:07:16;7.1;;;1.2;;
40048;SDS011;54524;55.740;37.544;2022-11-15T05:08:17;4.2;;;1.3;;
40048;SDS011;54524;55.740;37.544;2022-11-15T05:09:19;4.2;;;1.3;;
40048;SDS011;54524;55.740;37.544;2022-11-15T05:11:02;0;;;0;;
40048;SDS011;54524;55.740;37.544;2022-11-15T05:12:03;5.8;;;1.1;;
40048;SDS011;54524;55.740;37.544;2022-11-15T05:13:03;6.3;;;1.1;;
40048;SDS011;54524;55.740;37.544;2022-11-15T05:14:04;5.6;;;1;;
40048;SDS011;54524;55.740;37.544;2022-11-15T05:15:05;5.6;;;1;;
40048;SDS011;54524;55.740;37.544;2022-11-15T05:16:06;5.5;;;0.9;;
40048;SDS011;54524;55.740;37.544;2022-11-15T05:17:07;5.7;;;1.2;;
40048;SDS011;54524;55.740;37.544;2022-11-15T05:18:07;5.5;;;1.2;;
40048;SDS011;54524;55.740;37.544;2022-11-15T05:19:08;5.5;;;1.2;;
40048;SDS011;54524;55.740;37.544;2022-11-15T05:21:03;4.7;;;1.1;;
40048;SDS011;54524;55.740;37.544;2022-11-15T05:22:04;4.6;;;1.1;;
40048;SDS011;54524;55.740;37.544;2022-11-15T05:23:04;4.5;;;1.1;;
40048;SDS011;54524;55.740;37.544;2022-11-15T05:24:05;4.3;;;1.1;;
40048;SDS011;54524;55.740;37.544;2022-11-15T05:25:06;4.3;;;1.1;;
40048;SDS011;54524;55.740;37.544;2022-11-15T05:26:10;8.1;;;1.3;;
40048;SDS011;54524;55.740;37.544;2022-11-15T05:27:11;7.6;;;1.3;;
40048;SDS011;54524;55.740;37.544;2022-11-15T05:28:12;7.1;;;1.3;;
40048;SDS011;54524;55.740;37.544;2022-11-15T05:29:13;5.7;;;1.2;;
40048;SDS011;54524;55.740;37.544;2022-11-15T05:31:03;5.4;;;1.2;;
40048;SDS011;54524;55.740;37.544;2022-11-15T05:32:05;7.4;;;1.2;;
40048;SDS011;54524;55.740;37.544;2022-11-15T05:33:06;7.3;;;1.2;;
40048;SDS011;54524;55.740;37.544;2022-11-15T05:34:06;7.7;;;1.2;;
40048;SDS011;54524;55.740;37.544;2022-11-15T05:35:08;5.8;;;1.1;;
40048;SDS011;54524;55.740;37.544;2022-11-15T05:36:13;5.5;;;1.1;;
40048;SDS011;54524;55.740;37.544;2022-11-15T05:37:16;5.5;;;1;;
40048;SDS011;54524;55.740;37.544;2022-11-15T05:38:16;6.7;;;1.4;;
40048;SDS011;54524;55.740;37.544;2022-11-15T05:39:17;6.6;;;1.3;;
40048;SDS011;54524;55.740;37.544;2022-11-15T05:41:03;11.1;;;1.5;;
40048;SDS011;54524;55.740;37.544;2022-11-15T05:42:05;11.1;;;1.5;;
40048;SDS011;54524;55.740;37.544;2022-11-15T05:43:06;11.7;;;1.5;;
40048;SDS011;54524;55.740;37.544;2022-11-15T05:44:07;11.7;;;1.5;;
40048;SDS011;54524;55.740;37.544;2022-11-15T05:45:09;7.7;;;1.3;;
40048;SDS011;54524;55.740;37.544;2022-11-15T05:46:10;7.1;;;1.2;;
40048;SDS011;54524;55.740;37.544;2022-11-15T05:47:11;7;;;1.1;;
40048;SDS011;54524;55.740;37.544;2022-11-15T05:48:13;7.8;;;1.2;;
40048;SDS011;54524;55.740;37.544;2022-11-15T05:49:15;8.8;;;1.3;;
40048;SDS011;54524;55.740;37.544;2022-11-15T05:51:02;6.7;;;1.2;;
40048;SDS011;54524;55.740;37.544;2022-11-15T05:52:04;6.6;;;1.1;;
40048;SDS011;54524;55.740;37.544;2022-11-15T05:53:05;6.6;;;1.2;;
40048;SDS011;54524;55.740;37.544;2022-11-15T05:54:06;5.4;;;1.3;;
40048;SDS011;54524;55.740;37.544;2022-11-15T05:55:07;5.4;;;1.3;;
40048;SDS011;54524;55.740;37.544;2022-11-15T05:56:09;4.6;;;1.3;;
40048;SDS011;54524;55.740;37.544;2022-11-15T05:57:10;10.3;;;1.4;;
40048;SDS011;54524;55.740;37.544;2022-11-15T05:58:11;10.4;;;1.5;;
40048;SDS011;54524;55.740;37.544;2022-11-15T05:59:11;10.5;;;1.5;;
40048;SDS011;54524;55.740;37.544;2022-11-15T06:01:02;5.7;;;1.3;;
40048;SDS011;54524;55.740;37.544;2022-11-15T06:02:03;4.7;;;1.3;;
40048;SDS011;54524;55.740;37.544;2022-11-15T06:03:03;6.6;;;1.2;;
40048;SDS011;54524;55.740;37.544;2022-11-15T06:04:04;6.6;;;1.2;;
40048;SDS011;54524;55.740;37.544;2022-11-15T06:05:04;6.6;;;1.3;;
40048;SDS011;54524;55.740;37.544;2022-11-15T06:06:05;6.6;;;1.2;;
40048;SDS011;54524;55.740;37.544;2022-11-15T06:07:07;6.4;;;1.2;;
40048;SDS011;54524;55.740;37.544;2022-11-15T06:08:07;6.7;;;1.2;;
40048;SDS011;54524;55.740;37.544;2022-11-15T06:09:08;6;;;1.2;;
40048;SDS011;54524;55.740;37.544;2022-11-15T06:11:03;5.8;;;1.2;;
40048;SDS011;54524;55.740;37.544;2022-11-15T06:12:04;6.2;;;1.2;;
40048;SDS011;54524;55.740;37.544;2022-11-15T06:13:04;6.3;;;1.3;;
40048;SDS011;54524;55.740;37.544;2022-11-15T06:14:05;6.3;;;1.2;;
40048;SDS011;54524;55.740;37.544;2022-11-15T06:15:06;5.7;;;1.3;;
40048;SDS011;54524;55.740;37.544;2022-11-15T06:16:07;5.7;;;1.3;;
40048;SDS011;54524;55.740;37.544;2022-11-15T06:17:08;6.7;;;1.3;;
40048;SDS011;54524;55.740;37.544;2022-11-15T06:18:08;8.9;;;1.4;;
40048;SDS011;54524;55.740;37.544;2022-11-15T06:19:09;8.4;;;1.4;;
40048;SDS011;54524;55.740;37.544;2022-11-15T06:21:02;7.1;;;1.2;;
40048;SDS011;54524;55.740;37.544;2022-11-15T06:22:03;7.3;;;1.2;;
40048;SDS011;54524;55.740;37.544;2022-11-15T06:23:04;7.3;;;1.2;;
40048;SDS011;54524;55.740;37.544;2022-11-15T06:24:05;6.2;;;1.4;;
40048;SDS011;54524;55.740;37.544;2022-11-15T06:25:06;5.9;;;1.4;;
40048;SDS011;54524;55.740;37.544;2022-11-15T06:26:06;5.8;;;1.4;;
40048;SDS011;54524;55.740;37.544;2022-11-15T06:27:07;5.8;;;1.4;;
40048;SDS011;54524;55.740;37.544;2022-11-15T06:28:08;6.2;;;1.4;;
40048;SDS011;54524;55.740;37.544;2022-11-15T06:29:08;6;;;1.4;;
40048;SDS011;54524;55.740;37.544;2022-11-15T06:31:03;6.4;;;1.5;;
40048;SDS011;54524;55.740;37.544;2022-11-15T06:32:04;6.5;;;1.5;;
40048;SDS011;54524;55.740;37.544;2022-11-15T06:33:05;6.4;;;1.5;;
40048;SDS011;54524;55.740;37.544;2022-11-15T06:34:05;8.3;;;1.5;;
40048;SDS011;54524;55.740;37.544;2022-11-15T06:35:06;7.8;;;1.4;;
40048;SDS011;54524;55.740;37.544;2022-11-15T06:36:08;7.6;;;1.4;;
40048;SDS011;54524;55.740;37.544;2022-11-15T06:37:09;8.4;;;1.5;;
40048;SDS011;54524;55.740;37.544;2022-11-15T06:38:10;8.4;;;1.5;;
40048;SDS011;54524;55.740;37.544;2022-11-15T06:39:10;8.6;;;1.5;;
40048;SDS011;54524;55.740;37.544;2022-11-15T06:41:03;8.1;;;1.5;;
40048;SDS011;54524;55.740;37.544;2022-11-15T06:42:04;8.1;;;1.5;;
40048;SDS011;54524;55.740;37.544;2022-11-15T06:43:05;8.7;;;1.7;;
40048;SDS011;54524;55.740;37.544;2022-11-15T06:44:05;8.6;;;1.7;;
40048;SDS011;54524;55.740;37.544;2022-11-15T06:45:06;8.5;;;1.7;;
40048;SDS011;54524;55.740;37.544;2022-11-15T06:46:07;10.1;;;1.6;;
40048;SDS011;54524;55.740;37.544;2022-11-15T06:47:09;10.3;;;1.6;;
40048;SDS011;54524;55.740;37.544;2022-11-15T06:48:09;10.3;;;1.5;;
40048;SDS011;54524;55.740;37.544;2022-11-15T06:49:10;7;;;1.5;;
40048;SDS011;54524;55.740;37.544;2022-11-15T06:51:03;7.4;;;1.5;;
40048;SDS011;54524;55.740;37.544;2022-11-15T06:52:04;8.8;;;1.5;;
40048;SDS011;54524;55.740;37.544;2022-11-15T06:53:04;8.8;;;1.5;;
40048;SDS011;54524;55.740;37.544;2022-11-15T06:54:05;8.9;;;1.5;;
40048;SDS011;54524;55.740;37.544;2022-11-15T06:55:06;14.8;;;1.9;;
40048;SDS011;54524;55.740;37.544;2022-11-15T06:56:07;14.8;;;1.9;;
40048;SDS011;54524;55.740;37.544;2022-11-15T06:57:08;14.7;;;1.9;;
40048;SDS011;54524;55.740;37.544;2022-11-15T06:58:08;7.1;;;1.5;;
40048;SDS011;54524;55.740;37.544;2022-11-15T06:59:09;6.9;;;1.4;;
40048;SDS011;54524;55.740;37.544;2022-11-15T07:01:04;6.9;;;1.5;;
40048;SDS011;54524;55.740;37.544;2022-11-15T07:02:05;8.2;;;1.6;;